Ashintilly, Georgia
Current Conditions -  °F | °C
As of 8:35 AM on Wednesday 26 Nov 2014 (Local Time) from KBQK Reporting Station
Overcast Overcast  
Wind Chill: 52°   Ceiling: 900
Heat Index: 52°   Visibility: 10mi
Dew Point: 48°   Wind: 9mph
Humidity: 88%   Direction: 270°W
Pressure: 30.06"   Gusts: NA
Location:  31.5632°N, 81.4638°W
Report Text: KBQK 261335Z AUTO 27008KT 10SM BKN009 BKN039 OVC110 11/09 A3006 RMK AO1
Loading
Personal Weather Stations






























Interactive Weather Map New forecast layout! Learn more

10-Day Weather Forecast

Advertisements
Track Severe Weather on mobile